createdAt,value
2022-12-19T00:00:06.176Z,9.18
2022-12-19T00:02:39.367Z,9.35
2022-12-19T00:05:07.312Z,7.35
2022-12-19T00:07:34.493Z,9.13
2022-12-19T00:10:01.553Z,6.80
2022-12-19T00:12:28.624Z,8.38
2022-12-19T00:14:55.614Z,9.52
2022-12-19T00:17:25.270Z,9.52
2022-12-19T00:19:52.557Z,7.90
2022-12-19T00:22:19.847Z,9.95
2022-12-19T00:24:48.468Z,8.40
2022-12-19T00:27:15.521Z,10.55
2022-12-19T00:29:42.530Z,7.97
2022-12-19T00:32:11.006Z,9.40
2022-12-19T00:34:42.878Z,8.88
2022-12-19T00:37:12.395Z,9.35
2022-12-19T00:39:39.345Z,9.98
2022-12-19T00:42:06.483Z,7.85
2022-12-19T00:44:33.949Z,8.35
2022-12-19T00:47:00.932Z,7.50
2022-12-19T00:49:28.366Z,8.50
2022-12-19T00:51:57.811Z,8.55
2022-12-19T00:54:24.954Z,8.40
2022-12-19T00:56:52.672Z,8.02
2022-12-19T00:59:26.443Z,8.15
2022-12-19T01:01:56.655Z,7.50
2022-12-19T01:04:29.148Z,7.55
2022-12-19T01:06:57.994Z,8.80
2022-12-19T01:09:33.295Z,7.57
2022-12-19T01:12:19.287Z,10.60
2022-12-19T01:14:48.289Z,8.07
2022-12-19T01:17:15.580Z,7.90
2022-12-19T01:19:44.593Z,8.07
2022-12-19T01:22:14.069Z,8.55
2022-12-19T01:24:41.915Z,10.18
2022-12-19T01:27:09.045Z,7.88
2022-12-19T01:29:38.688Z,8.10
2022-12-19T01:32:19.846Z,9.93
2022-12-19T01:34:46.819Z,9.00
2022-12-19T01:37:17.891Z,8.60
2022-12-19T01:39:46.069Z,8.02
2022-12-19T01:42:23.536Z,7.53
2022-12-19T01:45:32.054Z,7.97
2022-12-19T01:48:17.675Z,7.78
2022-12-19T01:51:13.256Z,8.43
2022-12-19T01:53:49.312Z,9.32
2022-12-19T01:56:24.435Z,6.78
2022-12-19T01:59:05.076Z,8.48
2022-12-19T02:01:51.139Z,8.82
2022-12-19T02:04:23.973Z,8.32
2022-12-19T02:06:53.131Z,9.35
2022-12-19T02:09:24.439Z,8.30
2022-12-19T02:11:52.353Z,9.05
2022-12-19T02:14:20.007Z,9.25
2022-12-19T02:17:12.733Z,9.18
2022-12-19T02:20:33.764Z,8.35
2022-12-19T02:23:57.865Z,9.18
2022-12-19T02:27:07.283Z,7.05
2022-12-19T02:30:19.266Z,9.32
2022-12-19T02:33:05.128Z,9.33
2022-12-19T02:36:16.282Z,8.52
2022-12-19T02:39:00.704Z,9.93
2022-12-19T02:41:43.424Z,8.05
2022-12-19T02:44:26.113Z,8.38
2022-12-19T02:46:54.532Z,8.52
2022-12-19T02:49:30.990Z,8.75
2022-12-19T02:52:13.404Z,10.15
2022-12-19T02:54:40.762Z,8.63
2022-12-19T02:57:30.218Z,8.82
2022-12-19T03:00:11.737Z,9.13
2022-12-19T03:03:22.257Z,10.23
2022-12-19T03:06:16.450Z,7.85
2022-12-19T03:08:54.665Z,7.70
2022-12-19T03:11:24.812Z,9.88
2022-12-19T03:14:00.516Z,8.57
2022-12-19T03:16:27.942Z,7.75
2022-12-19T03:18:55.769Z,8.80
2022-12-19T03:21:36.567Z,8.27
2022-12-19T03:24:05.119Z,8.57
2022-12-19T03:27:12.688Z,8.63
2022-12-19T03:29:53.053Z,9.68
2022-12-19T03:32:23.445Z,7.50
2022-12-19T03:35:07.488Z,9.52
2022-12-19T03:37:39.045Z,9.07
2022-12-19T03:40:11.572Z,6.60
2022-12-19T03:43:00.511Z,9.38
2022-12-19T03:45:43.317Z,8.90
2022-12-19T03:48:31.547Z,8.45
2022-12-19T03:51:29.759Z,10.85
2022-12-19T03:54:03.847Z,8.60
2022-12-19T03:56:40.207Z,9.02
2022-12-19T03:59:17.085Z,9.20
2022-12-19T04:01:46.067Z,9.32
2022-12-19T04:04:14.470Z,9.32
2022-12-19T04:06:44.576Z,10.63
2022-12-19T04:09:16.719Z,8.57
2022-12-19T04:11:52.273Z,8.25
2022-12-19T04:14:28.977Z,9.10
2022-12-19T04:17:20.603Z,8.95
2022-12-19T04:20:02.727Z,5.53
2022-12-19T04:22:49.959Z,8.13
2022-12-19T04:25:21.541Z,10.93
2022-12-19T04:27:56.061Z,8.75
2022-12-19T04:30:23.512Z,10.23
2022-12-19T04:32:51.437Z,11.30
2022-12-19T04:35:18.882Z,11.32
2022-12-19T04:37:46.041Z,12.18
2022-12-19T04:40:14.123Z,8.70
2022-12-19T04:42:41.246Z,8.60
2022-12-19T04:45:09.932Z,9.30
2022-12-19T04:47:37.071Z,9.40
2022-12-19T04:50:04.970Z,10.80
2022-12-19T04:52:32.043Z,9.38
2022-12-19T04:55:06.883Z,9.43
2022-12-19T04:57:33.972Z,8.85
2022-12-19T05:00:01.249Z,10.38
2022-12-19T05:02:28.628Z,11.93
2022-12-19T05:04:55.742Z,9.50
2022-12-19T05:07:22.956Z,9.60
2022-12-19T05:09:50.040Z,13.73
2022-12-19T05:12:17.103Z,9.60
2022-12-19T05:14:44.038Z,9.35
2022-12-19T05:17:10.932Z,8.18
2022-12-19T05:19:38.037Z,9.27
2022-12-19T05:22:05.063Z,8.40
2022-12-19T05:24:32.808Z,9.48
2022-12-19T05:27:00.554Z,8.68
2022-12-19T05:29:27.749Z,8.75
2022-12-19T05:31:54.829Z,8.85
2022-12-19T05:34:22.015Z,8.40
2022-12-19T05:36:49.107Z,7.43
2022-12-19T05:39:17.054Z,10.25
2022-12-19T05:41:47.560Z,8.05
2022-12-19T05:44:16.226Z,9.35
2022-12-19T05:46:43.267Z,9.15
2022-12-19T05:49:10.517Z,10.38
2022-12-19T05:51:37.912Z,12.77
2022-12-19T05:54:05.239Z,11.52
2022-12-19T05:56:32.249Z,11.80
2022-12-19T05:58:59.374Z,10.43
2022-12-19T06:01:28.112Z,10.35
2022-12-19T06:03:56.061Z,11.63
2022-12-19T06:06:25.806Z,13.18
2022-12-19T06:08:54.757Z,13.43
2022-12-19T06:11:22.464Z,13.20
2022-12-19T06:13:49.591Z,16.50
2022-12-19T06:16:19.102Z,15.07
2022-12-19T06:18:46.563Z,12.10
2022-12-19T06:21:16.728Z,11.35
2022-12-19T06:23:44.806Z,9.77
2022-12-19T06:26:19.091Z,9.98
2022-12-19T06:28:48.664Z,10.10
2022-12-19T06:31:16.842Z,8.85
2022-12-19T06:33:44.272Z,11.25
2022-12-19T06:36:21.656Z,8.73
2022-12-19T06:38:49.595Z,11.10
2022-12-19T06:41:37.723Z,9.15
2022-12-19T06:44:11.642Z,8.18
2022-12-19T06:46:40.657Z,10.13
2022-12-19T06:49:12.271Z,8.95
2022-12-19T06:54:16.700Z,8.90
2022-12-19T06:56:44.616Z,9.43
2022-12-19T06:59:14.179Z,8.95
2022-12-19T07:02:03.815Z,9.77
2022-12-19T07:04:42.369Z,12.50
2022-12-19T07:07:09.566Z,11.30
2022-12-19T07:09:39.729Z,12.50
2022-12-19T07:12:07.493Z,11.45
2022-12-19T07:14:34.652Z,8.80
2022-12-19T07:17:04.025Z,7.80
2022-12-19T07:19:34.102Z,9.60
2022-12-19T07:22:04.265Z,10.07
2022-12-19T07:24:32.327Z,8.85
2022-12-19T07:27:00.109Z,10.13
2022-12-19T07:29:28.866Z,10.55
2022-12-19T07:32:01.501Z,7.93
2022-12-19T07:34:34.354Z,10.55
2022-12-19T07:37:02.718Z,10.27
2022-12-19T07:39:30.347Z,11.23
2022-12-19T07:41:58.766Z,11.60
2022-12-19T07:44:39.546Z,9.82
2022-12-19T07:47:10.716Z,10.68
2022-12-19T07:49:38.039Z,10.38
2022-12-19T07:52:06.777Z,8.73
2022-12-19T07:54:34.105Z,10.35
2022-12-19T07:57:02.555Z,11.43
2022-12-19T07:59:37.313Z,10.60
2022-12-19T08:02:09.581Z,11.68
2022-12-19T08:04:36.998Z,14.00
2022-12-19T08:07:04.631Z,12.05
2022-12-19T08:09:32.156Z,12.48
2022-12-19T08:11:59.221Z,13.80
2022-12-19T08:14:26.533Z,9.70
2022-12-19T08:17:19.684Z,9.77
2022-12-19T08:19:40.778Z,10.77
2022-12-19T08:22:11.320Z,10.15
2022-12-19T08:24:38.350Z,10.27
2022-12-19T08:27:05.993Z,9.07
2022-12-19T08:29:33.595Z,11.02
2022-12-19T08:32:00.707Z,10.98
2022-12-19T08:34:27.833Z,9.55
2022-12-19T08:36:55.142Z,11.05
2022-12-19T08:39:22.519Z,12.10
2022-12-19T08:41:49.555Z,11.52
2022-12-19T08:44:16.640Z,9.88
2022-12-19T08:46:49.762Z,11.48
2022-12-19T08:49:17.988Z,10.88
2022-12-19T08:51:45.377Z,12.63
2022-12-19T08:54:12.640Z,12.98
2022-12-19T08:56:42.206Z,12.20
2022-12-19T08:59:20.495Z,15.45
2022-12-19T09:01:59.919Z,13.40
2022-12-19T09:05:59.778Z,14.45
2022-12-19T09:07:15.578Z,12.20
2022-12-19T09:09:43.873Z,13.85
2022-12-19T09:12:12.206Z,14.32
2022-12-19T09:14:39.218Z,17.48
2022-12-19T09:17:06.749Z,13.85
2022-12-19T09:19:34.240Z,12.98
2022-12-19T09:22:01.457Z,14.30
2022-12-19T09:24:28.568Z,12.20
2022-12-19T09:26:55.699Z,15.77
2022-12-19T09:29:22.816Z,14.15
2022-12-19T09:31:56.450Z,16.38
2022-12-19T09:34:37.853Z,15.98
2022-12-19T09:37:16.800Z,13.50
2022-12-19T09:39:48.481Z,13.85
2022-12-19T09:42:59.222Z,13.27
2022-12-19T09:45:53.603Z,14.23
2022-12-19T09:48:24.431Z,19.17
2022-12-19T09:51:11.654Z,16.45
2022-12-19T09:53:55.712Z,18.80
2022-12-19T09:56:39.424Z,17.90
2022-12-19T09:59:41.508Z,15.80
2022-12-19T10:02:42.282Z,15.38
2022-12-19T10:07:10.555Z,19.73
2022-12-19T10:09:43.968Z,17.63
2022-12-19T10:54:44.269Z,11.65
2022-12-19T10:57:28.210Z,13.38
2022-12-19T11:00:18.172Z,14.05
2022-12-19T11:02:49.442Z,13.25
2022-12-19T11:05:30.065Z,12.05
2022-12-19T11:08:31.974Z,14.25
2022-12-19T11:15:26.418Z,11.38
2022-12-19T11:20:30.689Z,13.73
2022-12-19T11:27:16.164Z,12.80
2022-12-19T11:29:32.671Z,10.55
2022-12-19T11:30:41.367Z,12.50
2022-12-19T11:30:48.850Z,14.15
2022-12-19T11:32:42.040Z,15.25
2022-12-19T11:35:24.635Z,14.57
2022-12-19T11:37:58.006Z,12.40
2022-12-19T11:40:50.046Z,13.98
2022-12-19T11:43:44.309Z,11.68
2022-12-19T11:46:40.865Z,12.88
2022-12-19T11:49:29.140Z,13.32
2022-12-19T11:55:26.633Z,12.48
2022-12-19T11:57:55.028Z,13.02
2022-12-19T12:00:24.862Z,13.05
2022-12-19T12:03:38.461Z,13.38
2022-12-19T12:06:17.642Z,13.82
2022-12-19T12:11:07.915Z,11.55
2022-12-19T12:16:50.147Z,11.70
2022-12-19T12:29:17.048Z,8.27
2022-12-19T12:31:16.047Z,10.02
2022-12-19T12:35:48.780Z,9.95
2022-12-19T12:44:45.559Z,9.45
2022-12-19T12:50:15.576Z,9.32
2022-12-19T12:52:48.179Z,10.30
2022-12-19T12:55:40.461Z,10.40
2022-12-19T12:58:46.128Z,9.82
2022-12-19T13:01:44.174Z,9.18
2022-12-19T13:04:27.223Z,9.45
2022-12-19T13:07:31.831Z,9.68
2022-12-19T13:10:21.493Z,8.40
2022-12-19T13:13:14.645Z,7.07
2022-12-19T13:15:45.374Z,7.80
2022-12-19T13:18:38.089Z,8.27
2022-12-19T13:21:08.427Z,13.65
2022-12-19T13:23:47.272Z,8.88
2022-12-19T13:26:46.122Z,9.00
2022-12-19T13:29:30.987Z,8.40
2022-12-19T13:32:15.715Z,8.35
2022-12-19T13:34:57.535Z,8.38
2022-12-19T13:40:56.594Z,7.00
2022-12-19T13:43:48.406Z,8.98
2022-12-19T13:46:35.502Z,8.05
2022-12-19T13:49:35.019Z,9.52
2022-12-19T13:52:04.659Z,7.80
2022-12-19T13:54:45.151Z,9.98
2022-12-19T13:57:23.281Z,8.90
2022-12-19T14:00:00.097Z,7.30
2022-12-19T14:02:45.242Z,8.50
2022-12-19T14:06:15.794Z,7.28
2022-12-19T14:08:24.577Z,7.40
2022-12-19T14:11:34.553Z,8.57
2022-12-19T14:14:22.087Z,7.80
2022-12-19T14:16:56.390Z,7.28
2022-12-19T14:19:26.202Z,8.30
2022-12-19T14:22:11.570Z,8.90
2022-12-19T14:24:41.928Z,7.65
2022-12-19T14:28:23.836Z,8.88
2022-12-19T14:30:29.828Z,8.73
2022-12-19T14:33:46.641Z,9.15
2022-12-19T14:36:12.306Z,7.78
2022-12-19T14:39:25.000Z,8.30
2022-12-19T14:42:02.536Z,7.65
2022-12-19T14:52:34.686Z,7.30
2022-12-19T14:54:00.766Z,9.63
2022-12-19T14:54:37.843Z,8.85
2022-12-19T14:54:38.006Z,9.27
2022-12-19T14:56:33.638Z,9.68
2022-12-19T14:59:06.063Z,9.13
2022-12-19T15:01:36.733Z,9.63
2022-12-19T15:04:53.008Z,9.88
2022-12-19T15:07:36.474Z,10.27
2022-12-19T15:11:06.817Z,10.90
2022-12-19T15:14:52.854Z,9.60
2022-12-19T15:16:36.144Z,7.75
2022-12-19T15:19:11.675Z,7.80
2022-12-19T15:21:38.662Z,8.50
2022-12-19T15:24:06.462Z,7.75
2022-12-19T15:26:36.425Z,7.00
2022-12-19T15:29:19.807Z,7.88
2022-12-19T15:31:49.212Z,9.52
2022-12-19T15:34:50.460Z,9.95
2022-12-19T15:37:18.515Z,7.15
2022-12-19T15:39:47.231Z,8.65
2022-12-19T15:42:23.408Z,9.30
2022-12-19T15:44:56.552Z,9.13
2022-12-19T15:47:36.262Z,8.15
2022-12-19T15:50:22.436Z,9.02
2022-12-19T15:52:50.060Z,8.90
2022-12-19T15:55:20.672Z,9.20
2022-12-19T15:58:10.861Z,9.03
2022-12-19T16:00:38.656Z,13.05
2022-12-19T16:03:22.483Z,8.27
2022-12-19T16:05:50.358Z,8.90
2022-12-19T16:08:24.098Z,9.52
2022-12-19T16:11:00.975Z,9.82
2022-12-19T16:13:33.760Z,9.00
2022-12-19T16:16:02.191Z,10.35
2022-12-19T16:18:31.258Z,9.80
2022-12-19T16:20:58.369Z,8.32
2022-12-19T16:23:26.757Z,10.40
2022-12-19T16:25:56.423Z,9.90
2022-12-19T16:28:35.225Z,9.60
2022-12-19T16:31:15.649Z,10.68
2022-12-19T16:33:44.955Z,10.65
2022-12-19T16:36:16.279Z,8.82
2022-12-19T16:38:46.157Z,11.85
2022-12-19T16:41:21.953Z,9.85
2022-12-19T16:43:50.078Z,10.60
2022-12-19T16:46:25.565Z,10.98
2022-12-19T16:49:01.014Z,10.00
2022-12-19T16:51:28.866Z,10.10
2022-12-19T16:54:01.619Z,10.15
2022-12-19T16:56:37.025Z,10.40
2022-12-19T16:59:11.820Z,11.60
2022-12-19T17:01:40.239Z,11.07
2022-12-19T17:04:08.362Z,10.15
2022-12-19T17:06:38.699Z,12.23
2022-12-19T17:09:07.373Z,10.75
2022-12-19T17:11:34.809Z,7.80
2022-12-19T17:14:08.558Z,12.60
2022-12-19T17:16:35.880Z,9.35
2022-12-19T17:19:03.196Z,10.93
2022-12-19T17:21:31.097Z,9.52
2022-12-19T17:23:58.432Z,9.27
2022-12-19T17:26:28.854Z,10.23
2022-12-19T17:28:56.905Z,9.70
2022-12-19T17:33:58.607Z,12.25
2022-12-19T17:36:37.436Z,9.85
2022-12-19T17:39:23.564Z,9.23
2022-12-19T17:41:59.513Z,8.23
2022-12-19T17:44:34.356Z,9.38
2022-12-19T17:47:02.812Z,10.35
2022-12-19T17:49:33.301Z,8.68
2022-12-19T17:52:03.796Z,8.57
2022-12-19T17:54:31.674Z,10.10
2022-12-19T17:57:00.077Z,8.20
2022-12-19T17:59:28.446Z,9.88
2022-12-19T18:01:56.254Z,8.65
2022-12-19T18:04:25.759Z,8.57
2022-12-19T18:06:53.357Z,11.45
2022-12-19T18:09:24.032Z,11.52
2022-12-19T18:11:53.697Z,10.52
2022-12-19T18:14:22.942Z,8.70
2022-12-19T18:16:51.651Z,10.32
2022-12-19T18:19:21.381Z,9.43
2022-12-19T18:21:50.021Z,9.70
2022-12-19T18:24:18.340Z,8.85
2022-12-19T18:26:46.273Z,12.13
2022-12-19T18:29:15.308Z,9.00
2022-12-19T18:31:50.431Z,10.43
2022-12-19T18:34:26.508Z,9.50
2022-12-19T18:36:57.203Z,9.23
2022-12-19T18:39:27.928Z,7.55
2022-12-19T18:41:56.005Z,7.53
2022-12-19T18:44:23.622Z,8.50
2022-12-19T18:46:53.379Z,9.38
2022-12-19T18:49:21.065Z,7.30
2022-12-19T18:51:49.571Z,7.35
2022-12-19T18:54:19.815Z,8.25
2022-12-19T18:56:48.349Z,6.13
2022-12-19T18:59:18.183Z,7.32
2022-12-19T19:01:47.556Z,7.35
2022-12-19T19:04:18.453Z,6.50
2022-12-19T19:06:51.572Z,7.45
2022-12-19T19:09:22.293Z,8.00
2022-12-19T19:12:10.138Z,7.15
2022-12-19T19:14:38.946Z,7.28
2022-12-19T19:17:08.762Z,7.22
2022-12-19T19:19:37.828Z,7.10
2022-12-19T19:22:05.657Z,6.43
2022-12-19T19:24:37.328Z,6.32
2022-12-19T19:27:04.898Z,5.65
2022-12-19T19:29:33.774Z,4.80
2022-12-19T19:32:01.392Z,5.47
2022-12-19T19:34:32.147Z,5.32
2022-12-19T19:37:05.277Z,4.80
2022-12-19T19:39:38.294Z,5.25
2022-12-19T19:42:05.537Z,5.40
2022-12-19T19:44:33.316Z,5.22
2022-12-19T19:47:00.958Z,4.68
2022-12-19T19:49:28.933Z,4.20
2022-12-19T19:52:02.172Z,6.55
2022-12-19T19:54:32.317Z,6.10
2022-12-19T19:56:59.555Z,5.53
2022-12-19T19:59:31.328Z,5.90
2022-12-19T20:01:58.715Z,4.82
2022-12-19T20:04:26.582Z,6.72
2022-12-19T20:06:53.969Z,7.45
2022-12-19T20:09:21.127Z,4.28
2022-12-19T20:11:48.578Z,5.30
2022-12-19T20:14:18.617Z,4.63
2022-12-19T20:16:46.027Z,4.15
2022-12-19T20:19:13.397Z,4.15
2022-12-19T20:21:40.705Z,4.10
2022-12-19T20:24:08.490Z,4.93
2022-12-19T20:26:36.317Z,5.35
2022-12-19T20:29:04.318Z,4.40
2022-12-19T20:31:32.575Z,4.88
2022-12-19T20:34:00.074Z,4.10
2022-12-19T20:36:27.197Z,5.00
2022-12-19T20:38:54.372Z,5.53
2022-12-19T20:41:21.839Z,4.13
2022-12-19T20:43:50.368Z,4.07
2022-12-19T20:46:19.895Z,3.80
2022-12-19T20:48:49.260Z,4.35
2022-12-19T20:51:18.977Z,4.70
2022-12-19T20:53:47.022Z,4.20
2022-12-19T20:56:19.175Z,4.65
2022-12-19T20:58:46.887Z,4.28
2022-12-19T21:01:17.717Z,4.05
2022-12-19T21:03:45.674Z,3.80
2022-12-19T21:06:16.350Z,4.05
2022-12-19T21:08:43.687Z,3.05
2022-12-19T21:11:12.340Z,3.00
2022-12-19T21:13:39.747Z,3.60
2022-12-19T21:16:10.236Z,3.97
2022-12-19T21:18:38.907Z,4.40
2022-12-19T21:21:07.798Z,4.07
2022-12-19T21:23:35.303Z,4.18
2022-12-19T21:26:04.649Z,3.42
2022-12-19T21:28:33.427Z,3.40
2022-12-19T21:31:04.974Z,3.53
2022-12-19T21:36:06.829Z,3.08
2022-12-19T21:38:33.968Z,4.05
2022-12-19T21:41:06.329Z,4.30
2022-12-19T21:43:34.716Z,3.85
2022-12-19T21:46:12.818Z,3.63
2022-12-19T21:48:45.287Z,3.70
2022-12-19T21:51:13.981Z,3.25
2022-12-19T21:53:41.236Z,4.20
2022-12-19T21:56:41.979Z,4.00
2022-12-19T21:59:14.438Z,4.63
2022-12-19T22:01:42.834Z,4.88
2022-12-19T22:04:15.858Z,4.70
2022-12-19T22:06:43.038Z,4.45
2022-12-19T22:09:14.312Z,4.30
2022-12-19T22:11:41.930Z,3.92
2022-12-19T22:14:13.106Z,3.90
2022-12-19T22:16:40.404Z,4.28
2022-12-19T22:19:08.040Z,4.22
2022-12-19T22:21:35.164Z,4.25
2022-12-19T22:24:04.152Z,5.00
2022-12-19T22:26:32.930Z,4.35
2022-12-19T22:29:00.090Z,5.57
2022-12-19T22:31:32.661Z,4.13
2022-12-19T22:34:03.455Z,6.00
2022-12-19T22:36:32.792Z,5.00
2022-12-19T22:39:01.622Z,5.53
2022-12-19T22:41:28.960Z,5.80
2022-12-19T22:43:56.748Z,5.20
2022-12-19T22:46:27.088Z,6.72
2022-12-19T22:48:58.467Z,5.40
2022-12-19T22:51:26.796Z,5.70
2022-12-19T22:53:54.631Z,6.22
2022-12-19T22:56:24.516Z,7.03
2022-12-19T22:58:54.503Z,6.15
2022-12-19T23:01:25.303Z,6.15
2022-12-19T23:03:56.018Z,6.32
2022-12-19T23:06:25.737Z,5.28
2022-12-19T23:08:53.271Z,4.85
2022-12-19T23:11:23.646Z,6.68
2022-12-19T23:13:51.981Z,6.00
2022-12-19T23:16:19.285Z,4.68
2022-12-19T23:18:46.629Z,7.15
2022-12-19T23:21:16.798Z,6.70
2022-12-19T23:23:45.306Z,4.88
2022-12-19T23:26:21.535Z,5.63
2022-12-19T23:28:57.306Z,6.05
2022-12-19T23:31:25.190Z,6.20
2022-12-19T23:33:52.319Z,4.43
2022-12-19T23:36:38.127Z,4.72
2022-12-19T23:39:06.965Z,5.18
2022-12-19T23:41:34.237Z,5.13
2022-12-19T23:44:01.441Z,5.88
2022-12-19T23:46:28.990Z,6.25
2022-12-19T23:48:57.061Z,5.85
2022-12-19T23:51:26.658Z,5.93
2022-12-19T23:53:55.343Z,5.45
2022-12-19T23:56:25.190Z,6.95
2022-12-19T23:58:53.026Z,5.63
